createdAt,value
2023-05-05T07:54:45.432Z,11.70
2023-05-05T07:57:31.629Z,9.85
2023-05-05T08:06:28.245Z,12.95
2023-05-05T10:54:00.832Z,5.38
2023-05-05T10:56:47.411Z,7.45
2023-05-05T11:08:24.740Z,6.07
2023-05-05T11:22:56.976Z,3.83
2023-05-05T11:25:52.694Z,20.67
2023-05-05T11:29:28.409Z,19.23
2023-05-05T11:57:25.209Z,4.18
2023-05-05T13:34:11.703Z,5.00
2023-05-05T13:37:05.485Z,8.98
2023-05-05T13:39:59.595Z,5.35
2023-05-05T13:42:48.517Z,5.00
2023-05-05T13:45:35.627Z,9.80
2023-05-05T13:48:30.901Z,5.00
2023-05-05T13:51:29.696Z,5.53
2023-05-05T13:54:51.587Z,5.18
2023-05-05T13:58:08.595Z,5.05
2023-05-05T14:13:23.026Z,5.95
2023-05-05T14:16:09.656Z,6.22
2023-05-05T14:18:56.085Z,8.02
2023-05-05T14:21:45.179Z,7.60
2023-05-05T14:24:34.582Z,10.75
2023-05-05T14:27:41.056Z,6.07
2023-05-05T14:30:27.485Z,4.50
2023-05-05T14:33:25.900Z,5.90
2023-05-05T14:36:12.265Z,5.65
2023-05-05T14:38:59.855Z,5.82
2023-05-05T14:41:46.842Z,4.68
2023-05-05T14:44:33.262Z,4.88
2023-05-05T14:47:19.577Z,4.97
2023-05-05T14:50:09.690Z,7.20
2023-05-05T14:52:56.502Z,7.75
2023-05-05T14:55:42.983Z,6.00
2023-05-05T14:58:35.730Z,6.35
2023-05-05T15:04:11.336Z,4.65
2023-05-05T15:06:57.789Z,5.05
2023-05-05T15:09:44.280Z,4.05
2023-05-05T15:12:42.306Z,4.63
2023-05-05T15:16:03.449Z,4.38
2023-05-05T15:18:50.532Z,4.60
2023-05-05T16:36:37.461Z,8.43
2023-05-05T16:39:24.015Z,7.00
2023-05-05T16:42:10.245Z,5.80
2023-05-05T16:44:56.447Z,59.10
2023-05-05T16:47:42.841Z,49.50
2023-05-05T16:50:29.096Z,45.05
2023-05-05T16:53:15.236Z,61.42
2023-05-05T16:56:01.474Z,12.20
2023-05-05T16:58:47.699Z,8.38
2023-05-05T17:01:34.986Z,7.60
2023-05-05T17:04:21.273Z,5.85
2023-05-05T17:07:28.789Z,5.82
2023-05-05T17:10:18.823Z,6.38
2023-05-05T17:13:14.226Z,8.75
2023-05-05T17:16:33.819Z,9.88
2023-05-05T17:19:54.480Z,6.82
2023-05-05T17:23:04.331Z,5.93
2023-05-05T17:26:05.421Z,7.55
2023-05-05T17:29:12.821Z,7.00
2023-05-05T17:32:02.273Z,7.85
2023-05-05T17:35:04.249Z,8.63
2023-05-05T17:38:58.354Z,8.73
2023-05-05T17:41:18.372Z,9.75
2023-05-05T17:48:07.656Z,7.60
2023-05-05T17:50:53.643Z,13.40
2023-05-05T17:53:59.519Z,12.98
2023-05-05T17:56:51.768Z,8.98
2023-05-05T17:59:43.606Z,7.63
2023-05-05T18:02:29.635Z,32.35
2023-05-05T18:05:16.276Z,24.15
2023-05-05T18:08:02.697Z,43.03
2023-05-05T18:10:49.125Z,29.70
2023-05-05T18:13:37.632Z,33.75
2023-05-05T18:16:23.953Z,34.47
2023-05-05T18:19:12.848Z,16.00
2023-05-05T18:22:01.966Z,16.25
2023-05-05T18:25:32.457Z,11.45
2023-05-05T18:28:34.728Z,13.00
2023-05-05T18:31:32.135Z,13.68
2023-05-05T18:34:33.000Z,16.08
2023-05-05T18:40:45.637Z,19.90
2023-05-05T18:44:01.205Z,17.30
2023-05-05T18:46:50.779Z,14.98
2023-05-05T18:49:46.953Z,15.55
2023-05-05T18:52:43.693Z,13.40
2023-05-05T18:55:41.616Z,14.50
2023-05-05T18:58:39.233Z,14.35
2023-05-05T19:01:25.713Z,19.60
2023-05-05T19:04:26.828Z,21.67
2023-05-05T19:07:42.366Z,22.05
2023-05-05T19:10:39.719Z,21.02
2023-05-05T19:17:13.736Z,17.42
2023-05-05T19:20:12.916Z,14.98
2023-05-05T19:23:03.834Z,28.80
2023-05-05T19:25:56.119Z,37.65
2023-05-05T19:29:11.253Z,22.23
2023-05-05T19:32:01.030Z,10.95
2023-05-05T19:35:04.219Z,14.88
2023-05-05T19:38:04.631Z,14.77
2023-05-05T19:40:51.181Z,14.35
2023-05-05T19:43:40.020Z,15.38
2023-05-05T19:46:26.804Z,15.93
2023-05-05T20:10:28.871Z,18.63
2023-05-05T20:13:24.042Z,15.57
2023-05-05T20:30:30.947Z,15.00
2023-05-05T20:35:19.278Z,13.23
2023-05-05T20:38:44.497Z,12.82
2023-05-05T20:41:42.575Z,13.60
2023-05-05T20:44:54.439Z,13.05
2023-05-05T20:47:51.120Z,16.33
2023-05-05T20:51:34.719Z,16.67
2023-05-05T20:54:51.711Z,16.13
2023-05-05T20:57:51.717Z,16.83
2023-05-05T21:01:13.325Z,16.80
2023-05-05T21:14:21.982Z,10.60
2023-05-05T21:18:29.837Z,8.60
2023-05-05T21:21:28.217Z,8.43
2023-05-05T21:24:39.313Z,9.00
2023-05-05T21:28:24.148Z,8.27
2023-05-05T21:32:35.812Z,7.43
2023-05-05T21:35:11.186Z,7.13
2023-05-05T21:38:05.053Z,7.15
2023-05-05T21:41:12.408Z,7.65
2023-05-05T21:44:05.345Z,7.67
2023-05-05T21:50:15.049Z,6.63
2023-05-05T21:53:05.357Z,6.93
2023-05-05T21:56:31.548Z,7.35
2023-05-05T21:59:22.161Z,6.53
2023-05-05T22:02:19.671Z,7.35
2023-05-05T22:05:42.010Z,6.40
2023-05-05T22:08:54.168Z,6.40
2023-05-05T22:11:54.897Z,6.55
2023-05-05T22:15:09.824Z,8.13
2023-05-05T22:18:48.289Z,7.25
2023-05-05T22:21:18.519Z,7.07
2023-05-05T22:24:14.678Z,6.70
2023-05-05T22:27:14.511Z,7.97
2023-05-05T22:30:15.283Z,6.93
2023-05-05T22:33:08.071Z,7.40
2023-05-05T22:36:10.034Z,7.50
2023-05-05T22:39:42.243Z,7.53
2023-05-05T22:43:06.902Z,7.85
2023-05-05T22:46:02.891Z,7.30
2023-05-05T22:49:12.088Z,7.75
2023-05-05T22:52:11.076Z,8.20
2023-05-05T22:55:10.096Z,9.10
2023-05-05T22:58:18.301Z,7.65
2023-05-05T23:01:29.012Z,7.30
2023-05-05T23:04:22.693Z,7.55
2023-05-05T23:07:16.480Z,6.97
2023-05-05T23:10:13.529Z,7.47
2023-05-05T23:13:18.959Z,7.50
2023-05-05T23:16:20.659Z,7.75
2023-05-05T23:19:15.899Z,7.60
2023-05-05T23:22:42.853Z,7.25
2023-05-05T23:29:01.084Z,7.07
2023-05-05T23:31:58.328Z,7.57
2023-05-05T23:34:52.737Z,7.65
2023-05-05T23:37:55.931Z,7.70
2023-05-05T23:41:09.909Z,7.03
2023-05-05T23:44:09.759Z,7.72
2023-05-05T23:47:03.624Z,7.63
2023-05-05T23:50:04.670Z,8.85
2023-05-05T23:52:51.888Z,8.23
2023-05-05T23:55:42.593Z,7.40
2023-05-05T23:58:32.096Z,7.43
